UAL982 KATW-KPVD
Flight info
| Callsign | UAL982 |
|---|---|
| Flight time | 1h 42m |
| Altitude | 35000 |
| Route | JAMAG DASIR ARRKK ORCHA JORDN |
| Aircraft | A306/H-SDE3FGHIRWY/LB1 |
Departure
| Time | 2026-05-08 16:24 |
|---|---|
| Airport | Appleton International Airport (KATW) |
Arrival
| Time | 2026-05-08 18:06 |
|---|---|
| Airport | Rhode Island T. F. Green International Airport (KPVD) |
| Time | Latitude | Longitude | Altitude | Speed | Heading |
|---|---|---|---|---|---|
| 2026-05-08 16:04 | 44.25959 | -88.51465 | 896 ft | 0 kts | 43° |
| 2026-05-08 16:15 | 44.25950 | -88.51476 | 897 ft | 4 kts | 41° |
| 2026-05-08 16:15 | 44.25930 | -88.51501 | 897 ft | 4 kts | 37° |
| 2026-05-08 16:15 | 44.25907 | -88.51521 | 897 ft | 4 kts | 26° |
| 2026-05-08 16:16 | 44.25883 | -88.51532 | 895 ft | 4 kts | 348° |
| 2026-05-08 16:16 | 44.25872 | -88.51525 | 894 ft | 2 kts | 304° |
| 2026-05-08 16:20 | 44.25877 | -88.51537 | 895 ft | 5 kts | 302° |
| 2026-05-08 16:20 | 44.25880 | -88.51543 | 895 ft | 0 kts | 301° |
| 2026-05-08 16:20 | 44.25878 | -88.51568 | 895 ft | 6 kts | 256° |
| 2026-05-08 16:20 | 44.25860 | -88.51651 | 898 ft | 10 kts | 252° |
| 2026-05-08 16:21 | 44.25835 | -88.51752 | 906 ft | 12 kts | 250° |
| 2026-05-08 16:21 | 44.25764 | -88.51851 | 903 ft | 18 kts | 207° |
| 2026-05-08 16:21 | 44.25630 | -88.51943 | 902 ft | 25 kts | 207° |
| 2026-05-08 16:21 | 44.25455 | -88.52066 | 899 ft | 31 kts | 206° |
| 2026-05-08 16:22 | 44.25248 | -88.52205 | 898 ft | 35 kts | 206° |
| 2026-05-08 16:22 | 44.25100 | -88.52316 | 900 ft | 37 kts | 210° |
| 2026-05-08 16:22 | 44.24867 | -88.52506 | 900 ft | 14 kts | 278° |
| 2026-05-08 16:22 | 44.24935 | -88.52590 | 898 ft | 10 kts | 20° |
| 2026-05-08 16:23 | 44.24939 | -88.52588 | 899 ft | 0 kts | 21° |
| 2026-05-08 16:23 | 44.24985 | -88.52561 | 900 ft | 32 kts | 24° |
| 2026-05-08 16:23 | 44.25421 | -88.52264 | 898 ft | 105 kts | 26° |
| 2026-05-08 16:23 | 44.26256 | -88.51696 | 904 ft | 160 kts | 25° |
| 2026-05-08 16:24 | 44.26950 | -88.51193 | 1165 ft | 170 kts | 31° |
| 2026-05-08 16:24 | 44.27871 | -88.49995 | 1693 ft | 196 kts | 60° |
| 2026-05-08 16:24 | 44.27920 | -88.47488 | 2791 ft | 199 kts | 115° |
| 2026-05-08 16:24 | 44.27501 | -88.46326 | 3477 ft | 202 kts | 124° |
| 2026-05-08 16:25 | 44.26696 | -88.44523 | 4037 ft | 238 kts | 125° |
| 2026-05-08 16:25 | 44.25833 | -88.42362 | 4586 ft | 269 kts | 118° |
| 2026-05-08 16:25 | 44.25097 | -88.39880 | 5427 ft | 282 kts | 111° |
| 2026-05-08 16:25 | 44.24521 | -88.37241 | 6425 ft | 287 kts | 105° |
| 2026-05-08 16:26 | 44.24046 | -88.34506 | 7409 ft | 293 kts | 103° |
| 2026-05-08 16:26 | 44.23620 | -88.31728 | 8385 ft | 299 kts | 101° |
| 2026-05-08 16:26 | 44.23198 | -88.28859 | 9385 ft | 305 kts | 101° |
| 2026-05-08 16:26 | 44.22764 | -88.25936 | 10284 ft | 312 kts | 101° |
| 2026-05-08 16:27 | 44.22299 | -88.22867 | 10706 ft | 335 kts | 101° |
| 2026-05-08 16:27 | 44.21786 | -88.19589 | 11020 ft | 357 kts | 102° |
| 2026-05-08 16:27 | 44.21229 | -88.16116 | 11314 ft | 377 kts | 102° |
| 2026-05-08 16:27 | 44.20633 | -88.12461 | 11591 ft | 395 kts | 102° |
| 2026-05-08 16:28 | 44.20008 | -88.08658 | 11999 ft | 407 kts | 102° |
| 2026-05-08 16:28 | 44.19369 | -88.04776 | 12590 ft | 414 kts | 102° |
| 2026-05-08 16:28 | 44.18722 | -88.00836 | 13216 ft | 420 kts | 102° |
| 2026-05-08 16:28 | 44.18065 | -87.96841 | 13810 ft | 426 kts | 102° |
| 2026-05-08 16:29 | 44.17400 | -87.92801 | 14386 ft | 430 kts | 102° |
| 2026-05-08 16:29 | 44.16734 | -87.88769 | 14968 ft | 435 kts | 103° |
| 2026-05-08 16:29 | 44.16053 | -87.84649 | 15553 ft | 439 kts | 103° |
| 2026-05-08 16:29 | 44.15362 | -87.80481 | 16125 ft | 444 kts | 103° |
| 2026-05-08 16:30 | 44.14664 | -87.76275 | 16701 ft | 448 kts | 103° |
| 2026-05-08 16:30 | 44.13957 | -87.72026 | 17280 ft | 452 kts | 103° |
| 2026-05-08 16:30 | 44.13241 | -87.67737 | 17842 ft | 457 kts | 103° |
| 2026-05-08 16:30 | 44.12518 | -87.63416 | 18347 ft | 461 kts | 103° |
| 2026-05-08 16:31 | 44.11785 | -87.59049 | 18805 ft | 465 kts | 103° |
| 2026-05-08 16:31 | 44.11046 | -87.54654 | 19254 ft | 468 kts | 103° |
| 2026-05-08 16:31 | 44.10300 | -87.50228 | 19695 ft | 472 kts | 103° |
| 2026-05-08 16:31 | 44.09546 | -87.45765 | 20117 ft | 475 kts | 104° |
| 2026-05-08 16:32 | 44.08785 | -87.41275 | 20532 ft | 479 kts | 104° |
| 2026-05-08 16:32 | 44.08016 | -87.36749 | 20939 ft | 482 kts | 104° |
| 2026-05-08 16:32 | 44.07241 | -87.32200 | 21360 ft | 485 kts | 104° |
| 2026-05-08 16:32 | 44.06457 | -87.27608 | 21763 ft | 489 kts | 104° |
| 2026-05-08 16:33 | 44.05668 | -87.22999 | 22170 ft | 492 kts | 104° |
| 2026-05-08 16:33 | 44.04872 | -87.18359 | 22559 ft | 495 kts | 104° |
| 2026-05-08 16:33 | 44.04068 | -87.13689 | 22939 ft | 498 kts | 104° |
| 2026-05-08 16:33 | 44.03256 | -87.08985 | 23316 ft | 501 kts | 104° |
| 2026-05-08 16:34 | 44.02439 | -87.04260 | 23644 ft | 504 kts | 104° |
| 2026-05-08 16:34 | 44.01614 | -86.99507 | 23926 ft | 507 kts | 104° |
| 2026-05-08 16:34 | 44.00783 | -86.94731 | 24206 ft | 510 kts | 104° |
| 2026-05-08 16:34 | 43.99946 | -86.89931 | 24494 ft | 513 kts | 104° |
| 2026-05-08 16:35 | 43.99101 | -86.85098 | 24769 ft | 516 kts | 104° |
| 2026-05-08 16:35 | 43.98251 | -86.80253 | 25008 ft | 518 kts | 104° |
| 2026-05-08 16:35 | 43.97394 | -86.75378 | 25249 ft | 521 kts | 104° |
| 2026-05-08 16:35 | 43.96576 | -86.70458 | 25511 ft | 524 kts | 102° |
| 2026-05-08 16:36 | 43.95898 | -86.65545 | 25769 ft | 526 kts | 100° |
| 2026-05-08 16:36 | 43.95283 | -86.60528 | 26003 ft | 528 kts | 99° |
| 2026-05-08 16:36 | 43.94690 | -86.55481 | 26237 ft | 531 kts | 99° |
| 2026-05-08 16:36 | 43.94095 | -86.50423 | 26479 ft | 533 kts | 99° |
| 2026-05-08 16:37 | 43.93485 | -86.45334 | 26705 ft | 535 kts | 99° |
| 2026-05-08 16:37 | 43.92859 | -86.40241 | 26926 ft | 537 kts | 100° |
| 2026-05-08 16:37 | 43.92220 | -86.35137 | 27212 ft | 537 kts | 100° |
| 2026-05-08 16:37 | 43.91573 | -86.30032 | 27550 ft | 537 kts | 100° |
| 2026-05-08 16:38 | 43.90921 | -86.24934 | 27854 ft | 537 kts | 100° |
| 2026-05-08 16:38 | 43.90266 | -86.19835 | 28164 ft | 537 kts | 100° |
| 2026-05-08 16:38 | 43.89608 | -86.14732 | 28476 ft | 537 kts | 100° |
| 2026-05-08 16:38 | 43.88949 | -86.09639 | 28838 ft | 536 kts | 100° |
| 2026-05-08 16:39 | 43.88289 | -86.04551 | 29170 ft | 536 kts | 100° |
| 2026-05-08 16:39 | 43.87626 | -85.99460 | 29500 ft | 536 kts | 100° |
| 2026-05-08 16:39 | 43.86962 | -85.94372 | 29833 ft | 536 kts | 101° |
| 2026-05-08 16:39 | 43.86294 | -85.89273 | 30123 ft | 536 kts | 101° |
| 2026-05-08 16:40 | 43.85634 | -85.84255 | 30412 ft | 536 kts | 101° |
| 2026-05-08 16:40 | 43.84962 | -85.79162 | 30697 ft | 536 kts | 101° |
| 2026-05-08 16:40 | 43.84290 | -85.74087 | 30985 ft | 536 kts | 101° |
| 2026-05-08 16:40 | 43.83614 | -85.69003 | 31262 ft | 536 kts | 101° |
| 2026-05-08 16:41 | 43.82937 | -85.63929 | 31529 ft | 536 kts | 101° |
| 2026-05-08 16:41 | 43.82258 | -85.58851 | 31836 ft | 536 kts | 101° |
| 2026-05-08 16:41 | 43.81576 | -85.53776 | 32109 ft | 536 kts | 101° |
| 2026-05-08 16:42 | 43.80205 | -85.43623 | 32681 ft | 536 kts | 101° |
| 2026-05-08 16:42 | 43.79516 | -85.38549 | 33008 ft | 536 kts | 101° |
| 2026-05-08 16:42 | 43.78827 | -85.33488 | 33312 ft | 535 kts | 101° |
| 2026-05-08 16:42 | 43.78135 | -85.28423 | 33597 ft | 536 kts | 101° |
| 2026-05-08 16:43 | 43.77440 | -85.23359 | 33881 ft | 536 kts | 101° |
| 2026-05-08 16:43 | 43.76743 | -85.18296 | 34121 ft | 536 kts | 102° |
| 2026-05-08 16:43 | 43.76045 | -85.13240 | 34407 ft | 535 kts | 102° |
| 2026-05-08 16:43 | 43.75345 | -85.08192 | 34697 ft | 534 kts | 102° |
| 2026-05-08 16:44 | 43.74644 | -85.03149 | 34885 ft | 534 kts | 101° |
| 2026-05-08 16:44 | 43.73242 | -84.93113 | 34911 ft | 528 kts | 102° |
| 2026-05-08 16:45 | 43.71844 | -84.83179 | 34907 ft | 526 kts | 102° |
| 2026-05-08 16:45 | 43.70445 | -84.73307 | 34904 ft | 527 kts | 102° |
| 2026-05-08 16:46 | 43.69026 | -84.63353 | 34907 ft | 528 kts | 102° |
| 2026-05-08 16:46 | 43.67598 | -84.53402 | 34910 ft | 527 kts | 102° |
| 2026-05-08 16:47 | 43.66164 | -84.43470 | 34914 ft | 527 kts | 102° |
| 2026-05-08 16:47 | 43.64721 | -84.33547 | 34906 ft | 527 kts | 102° |
| 2026-05-08 16:48 | 43.63269 | -84.23621 | 34906 ft | 527 kts | 102° |
| 2026-05-08 16:48 | 43.61809 | -84.13703 | 34907 ft | 527 kts | 102° |
| 2026-05-08 16:49 | 43.60346 | -84.03831 | 34913 ft | 527 kts | 102° |
| 2026-05-08 16:49 | 43.58870 | -83.93937 | 34933 ft | 527 kts | 102° |
| 2026-05-08 16:50 | 43.57385 | -83.84038 | 34919 ft | 527 kts | 102° |
| 2026-05-08 16:50 | 43.55889 | -83.74131 | 34919 ft | 527 kts | 102° |
| 2026-05-08 16:51 | 43.54388 | -83.64248 | 34919 ft | 527 kts | 102° |
| 2026-05-08 16:51 | 43.52878 | -83.54372 | 34917 ft | 527 kts | 102° |
| 2026-05-08 16:52 | 43.51371 | -83.44569 | 34916 ft | 526 kts | 102° |
| 2026-05-08 16:52 | 43.49847 | -83.34721 | 34928 ft | 526 kts | 102° |
| 2026-05-08 16:53 | 43.47544 | -83.19954 | 34928 ft | 526 kts | 103° |
| 2026-05-08 16:53 | 43.45999 | -83.10115 | 34928 ft | 526 kts | 103° |
| 2026-05-08 16:54 | 43.44445 | -83.00281 | 34925 ft | 526 kts | 103° |
| 2026-05-08 16:54 | 43.42884 | -82.90460 | 34924 ft | 526 kts | 103° |
| 2026-05-08 16:55 | 43.41315 | -82.80646 | 34928 ft | 526 kts | 103° |
| 2026-05-08 16:55 | 43.39736 | -82.70831 | 34907 ft | 525 kts | 103° |
| 2026-05-08 16:56 | 43.38150 | -82.61024 | 34938 ft | 525 kts | 103° |
| 2026-05-08 16:56 | 43.36565 | -82.51278 | 34946 ft | 525 kts | 103° |
| 2026-05-08 16:57 | 43.34952 | -82.41418 | 34946 ft | 525 kts | 103° |
| 2026-05-08 16:57 | 43.33343 | -82.31649 | 34955 ft | 531 kts | 103° |
| 2026-05-08 16:58 | 43.31725 | -82.21717 | 34953 ft | 534 kts | 102° |
| 2026-05-08 16:58 | 43.30227 | -82.11731 | 34954 ft | 534 kts | 102° |
| 2026-05-08 16:59 | 43.28753 | -82.01727 | 34960 ft | 534 kts | 102° |
| 2026-05-08 16:59 | 43.27260 | -81.91728 | 34960 ft | 534 kts | 102° |
| 2026-05-08 17:00 | 43.25749 | -81.81747 | 34963 ft | 534 kts | 102° |
| 2026-05-08 17:00 | 43.24224 | -81.71766 | 34963 ft | 535 kts | 102° |
| 2026-05-08 17:01 | 43.22690 | -81.61790 | 34961 ft | 534 kts | 102° |
| 2026-05-08 17:01 | 43.21151 | -81.51833 | 34959 ft | 534 kts | 102° |
| 2026-05-08 17:02 | 43.19605 | -81.41895 | 34957 ft | 533 kts | 102° |
| 2026-05-08 17:02 | 43.18049 | -81.31950 | 34956 ft | 534 kts | 102° |
| 2026-05-08 17:03 | 43.16486 | -81.22019 | 34953 ft | 534 kts | 102° |
| 2026-05-08 17:03 | 43.14921 | -81.12137 | 34953 ft | 533 kts | 102° |
| 2026-05-08 17:04 | 43.13340 | -81.02211 | 34954 ft | 533 kts | 103° |
| 2026-05-08 17:04 | 43.11751 | -80.92291 | 34955 ft | 533 kts | 103° |
| 2026-05-08 17:05 | 43.10152 | -80.82373 | 34955 ft | 532 kts | 103° |
| 2026-05-08 17:05 | 43.08550 | -80.72495 | 34957 ft | 532 kts | 103° |
| 2026-05-08 17:06 | 43.06951 | -80.62684 | 34960 ft | 532 kts | 103° |
| 2026-05-08 17:06 | 43.05331 | -80.52813 | 34963 ft | 532 kts | 103° |
| 2026-05-08 17:07 | 43.03705 | -80.42954 | 34960 ft | 531 kts | 103° |
| 2026-05-08 17:07 | 43.02069 | -80.33095 | 34944 ft | 531 kts | 103° |
| 2026-05-08 17:08 | 43.00426 | -80.23245 | 34963 ft | 532 kts | 103° |
| 2026-05-08 17:08 | 42.98772 | -80.13390 | 34962 ft | 532 kts | 103° |
| 2026-05-08 17:09 | 42.97109 | -80.03537 | 34962 ft | 532 kts | 103° |
| 2026-05-08 17:09 | 42.95440 | -79.93704 | 34963 ft | 532 kts | 103° |
| 2026-05-08 17:10 | 42.94046 | -79.85532 | 34968 ft | 532 kts | 103° |
| 2026-05-08 17:10 | 42.92087 | -79.74107 | 34974 ft | 531 kts | 103° |
| 2026-05-08 17:11 | 42.90670 | -79.65892 | 34985 ft | 531 kts | 103° |
| 2026-05-08 17:11 | 42.88971 | -79.56093 | 34988 ft | 531 kts | 104° |
| 2026-05-08 17:12 | 42.87264 | -79.46298 | 34985 ft | 531 kts | 104° |
| 2026-05-08 17:12 | 42.85560 | -79.36572 | 34991 ft | 531 kts | 104° |
| 2026-05-08 17:13 | 42.83834 | -79.26778 | 34987 ft | 531 kts | 104° |
| 2026-05-08 17:13 | 42.82100 | -79.16989 | 34987 ft | 531 kts | 104° |
| 2026-05-08 17:14 | 42.80360 | -79.07218 | 34987 ft | 531 kts | 104° |
| 2026-05-08 17:14 | 42.78606 | -78.97423 | 34991 ft | 531 kts | 104° |
| 2026-05-08 17:15 | 42.76847 | -78.87647 | 34988 ft | 531 kts | 104° |
| 2026-05-08 17:15 | 42.75080 | -78.77883 | 34986 ft | 531 kts | 104° |
| 2026-05-08 17:16 | 42.73306 | -78.68128 | 34989 ft | 531 kts | 104° |
| 2026-05-08 17:16 | 42.71536 | -78.58450 | 34984 ft | 531 kts | 104° |
| 2026-05-08 17:17 | 42.69744 | -78.48702 | 34987 ft | 531 kts | 104° |
| 2026-05-08 17:17 | 42.67946 | -78.38977 | 34986 ft | 531 kts | 104° |
| 2026-05-08 17:18 | 42.66139 | -78.29242 | 34984 ft | 531 kts | 104° |
| 2026-05-08 17:18 | 42.64325 | -78.19520 | 34987 ft | 531 kts | 104° |
| 2026-05-08 17:19 | 42.62503 | -78.09805 | 34987 ft | 531 kts | 104° |
| 2026-05-08 17:19 | 42.60672 | -78.00098 | 34988 ft | 531 kts | 105° |
| 2026-05-08 17:20 | 42.58832 | -77.90391 | 34990 ft | 531 kts | 105° |
| 2026-05-08 17:20 | 42.56984 | -77.80687 | 34978 ft | 531 kts | 105° |
| 2026-05-08 17:21 | 42.55129 | -77.70997 | 34978 ft | 531 kts | 105° |
| 2026-05-08 17:21 | 42.53275 | -77.61358 | 34981 ft | 531 kts | 105° |
| 2026-05-08 17:22 | 42.51408 | -77.51699 | 34983 ft | 530 kts | 105° |
| 2026-05-08 17:22 | 42.49525 | -77.42011 | 34984 ft | 530 kts | 105° |
| 2026-05-08 17:23 | 42.47638 | -77.32345 | 34982 ft | 530 kts | 105° |
| 2026-05-08 17:23 | 42.45743 | -77.22684 | 34976 ft | 530 kts | 105° |
| 2026-05-08 17:24 | 42.43838 | -77.13028 | 34981 ft | 531 kts | 105° |
| 2026-05-08 17:24 | 42.41924 | -77.03371 | 34974 ft | 531 kts | 105° |
| 2026-05-08 17:25 | 42.40004 | -76.93722 | 34979 ft | 531 kts | 105° |
| 2026-05-08 17:25 | 42.38075 | -76.84084 | 34990 ft | 531 kts | 105° |
| 2026-05-08 17:26 | 42.36150 | -76.74509 | 34981 ft | 531 kts | 105° |
| 2026-05-08 17:26 | 42.34206 | -76.64882 | 34988 ft | 531 kts | 106° |
| 2026-05-08 17:27 | 42.32249 | -76.55245 | 34980 ft | 531 kts | 106° |
| 2026-05-08 17:27 | 42.30287 | -76.45619 | 34981 ft | 532 kts | 106° |
| 2026-05-08 17:28 | 42.28314 | -76.35987 | 34992 ft | 532 kts | 106° |
| 2026-05-08 17:28 | 42.26330 | -76.26352 | 34973 ft | 532 kts | 106° |
| 2026-05-08 17:29 | 42.24339 | -76.16725 | 34966 ft | 532 kts | 106° |
| 2026-05-08 17:29 | 42.22340 | -76.07095 | 34964 ft | 533 kts | 106° |
| 2026-05-08 17:30 | 42.20330 | -75.97469 | 34960 ft | 533 kts | 106° |
| 2026-05-08 17:30 | 42.18324 | -75.87900 | 34982 ft | 533 kts | 106° |
| 2026-05-08 17:31 | 42.16293 | -75.78266 | 34994 ft | 533 kts | 106° |
| 2026-05-08 17:31 | 42.14258 | -75.68654 | 34983 ft | 533 kts | 107° |
| 2026-05-08 17:32 | 42.12214 | -75.59042 | 34977 ft | 533 kts | 107° |
| 2026-05-08 17:32 | 42.10165 | -75.49442 | 34978 ft | 533 kts | 107° |
| 2026-05-08 17:33 | 42.08116 | -75.39890 | 34966 ft | 534 kts | 107° |
| 2026-05-08 17:33 | 42.05775 | -75.30424 | 34969 ft | 532 kts | 118° |
| 2026-05-08 17:34 | 42.02573 | -75.21451 | 34970 ft | 532 kts | 118° |
| 2026-05-08 17:34 | 41.99359 | -75.12483 | 34969 ft | 532 kts | 118° |
| 2026-05-08 17:35 | 41.96100 | -75.03536 | 34963 ft | 532 kts | 118° |
| 2026-05-08 17:35 | 41.92826 | -74.94614 | 34958 ft | 533 kts | 119° |
| 2026-05-08 17:36 | 41.89559 | -74.85747 | 34950 ft | 533 kts | 119° |
| 2026-05-08 17:36 | 41.86266 | -74.76827 | 34947 ft | 533 kts | 119° |
| 2026-05-08 17:37 | 41.82971 | -74.67923 | 34946 ft | 533 kts | 119° |
| 2026-05-08 17:37 | 41.79667 | -74.59025 | 34946 ft | 533 kts | 119° |
| 2026-05-08 17:38 | 41.76357 | -74.50137 | 34947 ft | 533 kts | 119° |
| 2026-05-08 17:38 | 41.73064 | -74.41326 | 34944 ft | 533 kts | 119° |
| 2026-05-08 17:39 | 41.69741 | -74.32460 | 34935 ft | 533 kts | 119° |
| 2026-05-08 17:39 | 41.66409 | -74.23596 | 34934 ft | 533 kts | 119° |
| 2026-05-08 17:40 | 41.63066 | -74.14729 | 34942 ft | 534 kts | 119° |
| 2026-05-08 17:40 | 41.59718 | -74.05876 | 34933 ft | 534 kts | 120° |
| 2026-05-08 17:41 | 41.56362 | -73.97031 | 34935 ft | 533 kts | 120° |
| 2026-05-08 17:41 | 41.53003 | -73.88203 | 34934 ft | 533 kts | 120° |
| 2026-05-08 17:42 | 41.49637 | -73.79387 | 34928 ft | 533 kts | 120° |
| 2026-05-08 17:42 | 41.46264 | -73.70577 | 34935 ft | 533 kts | 120° |
| 2026-05-08 17:43 | 41.42887 | -73.61780 | 34916 ft | 533 kts | 120° |
| 2026-05-08 17:43 | 41.39496 | -73.52978 | 34943 ft | 534 kts | 120° |
| 2026-05-08 17:44 | 41.36096 | -73.44179 | 34944 ft | 535 kts | 120° |
| 2026-05-08 17:44 | 41.32707 | -73.35445 | 34905 ft | 534 kts | 120° |
| 2026-05-08 17:45 | 41.31008 | -73.31067 | 34376 ft | 531 kts | 120° |
| 2026-05-08 17:45 | 41.29307 | -73.26690 | 33349 ft | 536 kts | 120° |
| 2026-05-08 17:45 | 41.27584 | -73.22269 | 32245 ft | 541 kts | 120° |
| 2026-05-08 17:45 | 41.25844 | -73.17815 | 31210 ft | 544 kts | 120° |
| 2026-05-08 17:46 | 41.24097 | -73.13344 | 30184 ft | 547 kts | 120° |
| 2026-05-08 17:46 | 41.22341 | -73.08855 | 29075 ft | 547 kts | 120° |
| 2026-05-08 17:46 | 41.20588 | -73.04378 | 28020 ft | 545 kts | 120° |
| 2026-05-08 17:46 | 41.18843 | -72.99926 | 26966 ft | 543 kts | 120° |
| 2026-05-08 17:47 | 41.17099 | -72.95487 | 25954 ft | 540 kts | 120° |
| 2026-05-08 17:47 | 41.15363 | -72.91072 | 25298 ft | 539 kts | 120° |
| 2026-05-08 17:47 | 41.13623 | -72.86659 | 24989 ft | 541 kts | 120° |
| 2026-05-08 17:47 | 41.12464 | -72.83727 | 24943 ft | 542 kts | 120° |
| 2026-05-08 17:48 | 41.10122 | -72.77804 | 24929 ft | 541 kts | 120° |
| 2026-05-08 17:48 | 41.08374 | -72.73393 | 24927 ft | 540 kts | 120° |
| 2026-05-08 17:48 | 41.06627 | -72.68990 | 24948 ft | 540 kts | 120° |
| 2026-05-08 17:48 | 41.04899 | -72.64640 | 24953 ft | 540 kts | 120° |
| 2026-05-08 17:49 | 41.03149 | -72.60239 | 24954 ft | 540 kts | 120° |
| 2026-05-08 17:49 | 41.01399 | -72.55846 | 24956 ft | 540 kts | 121° |
| 2026-05-08 17:49 | 40.99643 | -72.51446 | 24957 ft | 540 kts | 121° |
| 2026-05-08 17:49 | 40.97889 | -72.47057 | 24939 ft | 540 kts | 121° |
| 2026-05-08 17:50 | 40.96129 | -72.42658 | 24937 ft | 540 kts | 121° |
| 2026-05-08 17:50 | 40.94364 | -72.38251 | 24936 ft | 540 kts | 120° |
| 2026-05-08 17:50 | 40.92981 | -72.33629 | 24936 ft | 544 kts | 105° |
| 2026-05-08 17:50 | 40.92448 | -72.28737 | 24640 ft | 532 kts | 91° |
| 2026-05-08 17:51 | 40.92725 | -72.23919 | 23680 ft | 522 kts | 77° |
| 2026-05-08 17:51 | 40.93845 | -72.19392 | 22405 ft | 514 kts | 60° |
| 2026-05-08 17:51 | 40.95647 | -72.15476 | 21424 ft | 500 kts | 50° |
| 2026-05-08 17:51 | 40.97556 | -72.11655 | 20417 ft | 495 kts | 52° |
| 2026-05-08 17:52 | 40.99338 | -72.07789 | 19498 ft | 487 kts | 51° |
| 2026-05-08 17:52 | 41.01444 | -72.04373 | 18515 ft | 473 kts | 40° |
| 2026-05-08 17:52 | 41.05934 | -71.98345 | 17043 ft | 434 kts | 38° |
| 2026-05-08 17:53 | 41.08008 | -71.95615 | 16591 ft | 406 kts | 37° |
| 2026-05-08 17:53 | 41.09953 | -71.93067 | 16213 ft | 381 kts | 37° |
| 2026-05-08 17:53 | 41.11785 | -71.90673 | 15887 ft | 359 kts | 37° |
| 2026-05-08 17:53 | 41.13524 | -71.88409 | 15446 ft | 343 kts | 36° |
| 2026-05-08 17:54 | 41.15211 | -71.86220 | 14886 ft | 336 kts | 37° |
| 2026-05-08 17:54 | 41.16872 | -71.84069 | 14606 ft | 330 kts | 37° |
| 2026-05-08 17:54 | 41.18485 | -71.81975 | 14144 ft | 329 kts | 37° |
| 2026-05-08 17:54 | 41.20131 | -71.79840 | 13495 ft | 333 kts | 38° |
| 2026-05-08 17:55 | 41.21794 | -71.77677 | 12800 ft | 335 kts | 38° |
| 2026-05-08 17:55 | 41.23464 | -71.75497 | 12136 ft | 337 kts | 39° |
| 2026-05-08 17:55 | 41.25136 | -71.73311 | 11489 ft | 338 kts | 39° |
| 2026-05-08 17:55 | 41.26815 | -71.71113 | 10838 ft | 338 kts | 39° |
| 2026-05-08 17:56 | 41.28486 | -71.68924 | 10204 ft | 337 kts | 39° |
| 2026-05-08 17:56 | 41.30155 | -71.66735 | 9553 ft | 336 kts | 40° |
| 2026-05-08 17:56 | 41.31815 | -71.64557 | 8887 ft | 333 kts | 40° |
| 2026-05-08 17:56 | 41.33441 | -71.62419 | 8223 ft | 325 kts | 40° |
| 2026-05-08 17:57 | 41.35030 | -71.60330 | 7579 ft | 317 kts | 40° |
| 2026-05-08 17:57 | 41.36583 | -71.58288 | 6943 ft | 311 kts | 41° |
| 2026-05-08 17:57 | 41.38111 | -71.56277 | 6327 ft | 306 kts | 41° |
| 2026-05-08 17:57 | 41.39617 | -71.54293 | 5674 ft | 302 kts | 41° |
| 2026-05-08 17:58 | 41.41098 | -71.52339 | 5024 ft | 298 kts | 41° |
| 2026-05-08 17:58 | 41.42562 | -71.50404 | 4370 ft | 294 kts | 40° |
| 2026-05-08 17:58 | 41.44008 | -71.48498 | 3728 ft | 292 kts | 40° |
| 2026-05-08 17:58 | 41.45442 | -71.46605 | 3088 ft | 287 kts | 41° |
| 2026-05-08 17:59 | 41.46834 | -71.44765 | 2623 ft | 274 kts | 41° |
| 2026-05-08 17:59 | 41.48144 | -71.43026 | 2398 ft | 257 kts | 41° |
| 2026-05-08 17:59 | 41.49384 | -71.41391 | 2223 ft | 246 kts | 40° |
| 2026-05-08 17:59 | 41.50179 | -71.40346 | 2163 ft | 239 kts | 40° |
| 2026-05-08 18:00 | 41.51315 | -71.38844 | 2162 ft | 221 kts | 40° |
| 2026-05-08 18:00 | 41.53704 | -71.35671 | 1987 ft | 200 kts | 40° |
| 2026-05-08 18:00 | 41.54698 | -71.34362 | 2004 ft | 201 kts | 40° |
| 2026-05-08 18:01 | 41.55690 | -71.33049 | 2002 ft | 201 kts | 40° |
| 2026-05-08 18:01 | 41.56359 | -71.32162 | 1993 ft | 201 kts | 41° |
| 2026-05-08 18:01 | 41.57376 | -71.30899 | 1984 ft | 198 kts | 33° |
| 2026-05-08 18:01 | 41.58561 | -71.30074 | 1987 ft | 192 kts | 10° |
| 2026-05-08 18:02 | 41.59792 | -71.29924 | 1976 ft | 166 kts | 346° |
| 2026-05-08 18:02 | 41.60811 | -71.30309 | 2030 ft | 144 kts | 328° |
| 2026-05-08 18:02 | 41.61621 | -71.30990 | 1970 ft | 136 kts | 315° |
| 2026-05-08 18:02 | 41.62379 | -71.31787 | 1945 ft | 140 kts | 314° |
| 2026-05-08 18:03 | 41.63142 | -71.32599 | 1943 ft | 140 kts | 314° |
| 2026-05-08 18:03 | 41.63907 | -71.33413 | 1943 ft | 141 kts | 314° |
| 2026-05-08 18:03 | 41.64677 | -71.34228 | 1943 ft | 141 kts | 314° |
| 2026-05-08 18:03 | 41.65449 | -71.35051 | 1949 ft | 142 kts | 315° |
| 2026-05-08 18:04 | 41.66220 | -71.35869 | 1943 ft | 141 kts | 315° |
| 2026-05-08 18:04 | 41.66990 | -71.36680 | 1960 ft | 141 kts | 315° |
| 2026-05-08 18:04 | 41.67784 | -71.37496 | 1612 ft | 152 kts | 317° |
| 2026-05-08 18:04 | 41.68658 | -71.38279 | 1143 ft | 148 kts | 317° |
| 2026-05-08 18:05 | 41.69394 | -71.39157 | 801 ft | 138 kts | 308° |
| 2026-05-08 18:05 | 41.70126 | -71.40001 | 681 ft | 144 kts | 316° |
| 2026-05-08 18:05 | 41.70910 | -71.40821 | 396 ft | 139 kts | 312° |
| 2026-05-08 18:05 | 41.71632 | -71.41561 | 148 ft | 118 kts | 305° |
| 2026-05-08 18:06 | 41.72178 | -71.42251 | 61 ft | 91 kts | 316° |
| 2026-05-08 18:06 | 41.72604 | -71.42636 | 59 ft | 63 kts | 323° |
| 2026-05-08 18:06 | 41.72868 | -71.42918 | 63 ft | 23 kts | 332° |
| 2026-05-08 18:06 | 41.73009 | -71.42878 | 65 ft | 21 kts | 30° |
| 2026-05-08 18:07 | 41.73131 | -71.42771 | 64 ft | 17 kts | 34° |
| 2026-05-08 18:07 | 41.73176 | -71.42652 | 63 ft | 14 kts | 89° |
| 2026-05-08 18:07 | 41.73179 | -71.42523 | 67 ft | 14 kts | 88° |
| 2026-05-08 18:07 | 41.73179 | -71.42502 | 70 ft | 0 kts | 88° |
| 2026-05-08 18:08 | 41.72572 | -71.43447 | 64 ft | 0 kts | 332° |